Time;durP1;ratioP1;P1;durP2;ratioP2;P2;SDS_P1;SDS_P2;PMS_P1;PMS_P2;Temp;Humidity;BMP_temperature;BMP_pressure;BME280_temperature;BME280_humidity;BME280_pressure;Samples;Min_cycle;Max_cycle;Signal;HPM_P1;HPM_P2
2023/01/22 00:00:21;;;;;;;17.92;9.13;;;;;;;-2.90;68.47;146612.31;5079231;28;20071;-67
2023/01/22 00:02:47;;;;;;;15.48;9.00;;;;;;;-3.15;68.58;146551.44;5074335;28;20028;-67
2023/01/22 00:05:13;;;;;;;18.60;9.00;;;;;;;-3.19;68.11;146542.59;5079298;28;20021;-67
2023/01/22 00:07:39;;;;;;;17.63;8.55;;;;;;;-3.12;68.78;146560.31;5078550;28;20321;-68
2023/01/22 00:10:05;;;;;;;15.10;9.05;;;;;;;-3.10;69.34;146562.88;5081615;28;20332;-68
2023/01/22 00:12:30;;;;;;;17.73;8.93;;;;;;;-3.10;68.78;146564.13;5071683;28;20218;-68
2023/01/22 00:14:56;;;;;;;20.50;8.98;;;;;;;-3.27;69.26;146522.28;5065802;28;20032;-68
2023/01/22 00:17:21;;;;;;;17.25;9.57;;;;;;;-3.20;69.63;146538.78;5080792;28;20043;-67
2023/01/22 00:19:47;;;;;;;15.07;9.07;;;;;;;-3.22;70.17;146533.69;5082699;28;20032;-68
2023/01/22 00:22:12;;;;;;;16.50;9.23;;;;;;;-3.31;70.47;146512.13;5084688;28;20040;-67
2023/01/22 00:24:41;;;;;;;18.15;9.05;;;;;;;-3.18;69.66;146543.84;5085103;28;20047;-68
2023/01/22 00:27:06;;;;;;;16.35;8.93;;;;;;;-3.22;70.18;146533.69;5082909;28;20440;-69
2023/01/22 00:29:32;;;;;;;18.38;9.30;;;;;;;-3.10;69.79;146564.13;5104377;28;20020;-68
2023/01/22 00:31:57;;;;;;;16.05;8.88;;;;;;;-2.99;69.51;146590.78;5084019;28;20066;-68
2023/01/22 00:34:23;;;;;;;18.55;8.85;;;;;;;-3.17;69.86;146547.63;5085015;28;20039;-69
2023/01/22 00:36:48;;;;;;;16.80;8.90;;;;;;;-3.20;69.33;146540.03;5072772;28;20029;-67
2023/01/22 00:39:14;;;;;;;17.67;8.70;;;;;;;-3.22;69.77;146533.69;5071496;28;20066;-68
2023/01/22 00:41:40;;;;;;;16.02;9.20;;;;;;;-3.26;70.31;146523.53;5074960;28;20029;-67
2023/01/22 00:44:06;;;;;;;17.65;9.73;;;;;;;-3.21;71.07;146537.47;5084859;28;20327;-68
2023/01/22 00:46:31;;;;;;;15.18;8.73;;;;;;;-3.09;70.46;146566.69;5084012;28;20036;-67
2023/01/22 00:48:57;;;;;;;18.67;9.30;;;;;;;-3.14;69.67;146555.22;5072116;28;20205;-70
2023/01/22 00:51:23;;;;;;;17.52;9.00;;;;;;;-3.14;70.17;146553.97;5072516;28;20092;-68
2023/01/22 00:53:48;;;;;;;18.98;9.98;;;;;;;-3.13;69.82;146556.53;5084625;28;20020;-68
2023/01/22 00:56:14;;;;;;;14.43;8.80;;;;;;;-3.34;70.53;146505.78;5083933;28;20043;-70
2023/01/22 00:58:40;;;;;;;15.23;9.52;;;;;;;-3.19;70.94;146542.59;5065626;28;20032;-69
2023/01/22 01:01:06;;;;;;;16.40;9.50;;;;;;;-3.14;70.21;146555.22;5071239;28;20229;-69
2023/01/22 01:03:32;;;;;;;19.42;8.95;;;;;;;-3.42;71.32;146485.56;5073345;28;20024;-69
2023/01/22 01:06:16;;;;;;;15.90;9.02;;;;;;;-3.50;71.11;146466.50;5079533;28;20128;-69
2023/01/22 01:08:42;;;;;;;18.63;9.43;;;;;;;-3.49;71.63;146469.06;5082630;28;20024;-68
2023/01/22 01:11:15;;;;;;;18.70;9.48;;;;;;;-3.55;71.57;146453.88;5083007;28;20032;-68
2023/01/22 01:13:42;;;;;;;17.27;10.05;;;;;;;-3.35;71.57;146502.00;5083680;28;20035;-67
2023/01/22 01:16:14;;;;;;;18.50;9.13;;;;;;;-3.44;71.75;146480.44;5083210;28;20240;-67
2023/01/22 01:18:40;;;;;;;15.25;8.77;;;;;;;-3.19;71.44;146542.59;5073850;28;20048;-68
2023/01/22 01:21:06;;;;;;;19.42;8.57;;;;;;;-3.32;71.56;146510.88;5068759;28;20028;-67
2023/01/22 01:23:33;;;;;;;17.15;9.23;;;;;;;-3.13;71.45;146556.53;5065707;28;20126;-68
2023/01/22 01:25:58;;;;;;;15.05;8.52;;;;;;;-3.22;72.51;146534.97;5082616;28;20055;-68
2023/01/22 01:28:25;;;;;;;16.77;9.75;;;;;;;-3.29;71.47;146517.25;5079901;28;20312;-67
2023/01/22 01:30:50;;;;;;;16.08;9.27;;;;;;;-3.09;71.05;146565.38;5081946;28;20036;-68
2023/01/22 01:33:16;;;;;;;17.63;9.20;;;;;;;-3.26;71.46;146524.84;5083935;28;20066;-68
2023/01/22 01:35:41;;;;;;;16.55;9.40;;;;;;;-3.21;71.30;146536.22;5072248;28;20029;-68
2023/01/22 01:38:07;;;;;;;13.95;9.02;;;;;;;-3.18;71.79;146543.84;5083899;28;20255;-68
2023/01/22 01:40:34;;;;;;;15.57;8.65;;;;;;;-3.38;71.42;146495.66;5080544;28;20020;-69
2023/01/22 01:43:00;;;;;;;17.88;9.57;;;;;;;-3.16;71.76;146548.94;5075942;28;20170;-67
2023/01/22 01:45:31;;;;;;;15.60;8.75;;;;;;;-3.38;72.13;146495.66;5083092;28;20048;-69
2023/01/22 01:48:08;;;;;;;14.65;9.45;;;;;;;-3.42;72.31;146485.56;5080010;28;20086;-68
2023/01/22 01:50:37;;;;;;;16.83;9.45;;;;;;;-3.39;73.87;146491.84;5046367;28;20094;-67
2023/01/22 01:53:03;;;;;;;16.23;9.45;;;;;;;-3.52;73.01;146461.47;5083557;28;20044;-66
2023/01/22 01:55:33;;;;;;;15.95;9.35;;;;;;;-3.53;72.91;146458.91;5083272;28;20029;-67
2023/01/22 01:58:09;;;;;;;15.68;9.65;;;;;;;-3.49;73.47;146469.06;5070950;28;20233;-68
2023/01/22 02:00:36;;;;;;;15.00;9.13;;;;;;;-3.38;73.57;146494.41;5071817;28;20194;-68
2023/01/22 02:03:02;;;;;;;18.75;9.90;;;;;;;-3.26;73.75;146523.53;5078788;28;20031;-67
2023/01/22 02:05:33;;;;;;;16.10;9.93;;;;;;;-3.22;73.16;146533.69;5064632;28;20359;-67
2023/01/22 02:07:59;;;;;;;19.60;9.60;;;;;;;-3.16;73.05;146550.19;5062401;28;20092;-67
2023/01/22 02:10:24;;;;;;;17.25;9.50;;;;;;;-3.50;73.15;146466.50;5079243;28;20036;-66
2023/01/22 02:12:53;;;;;;;19.60;9.82;;;;;;;-3.36;73.72;146500.75;5073259;28;20216;-67
2023/01/22 02:15:19;;;;;;;18.33;10.55;;;;;;;-3.42;73.66;146484.25;5081845;28;20352;-67
2023/01/22 02:17:46;;;;;;;18.60;9.70;;;;;;;-3.31;72.99;146513.44;5076044;28;20031;-67
2023/01/22 02:20:12;;;;;;;21.27;10.20;;;;;;;-3.27;73.42;146521.03;5082672;28;20043;-67
2023/01/22 02:22:38;;;;;;;20.95;10.43;;;;;;;-3.50;74.07;146465.25;5082373;28;20024;-66
2023/01/22 02:25:05;;;;;;;18.98;11.00;;;;;;;-3.37;73.91;146496.94;5065033;28;20024;-66
2023/01/22 02:27:31;;;;;;;17.15;10.48;;;;;;;-3.19;73.82;146541.28;5074964;28;20107;-67
2023/01/22 02:29:56;;;;;;;18.63;10.00;;;;;;;-3.35;73.42;146503.28;5099735;28;20208;-68
2023/01/22 02:32:22;;;;;;;20.30;10.13;;;;;;;-3.20;73.40;146540.03;5082320;28;20044;-67
2023/01/22 02:34:48;;;;;;;17.67;10.15;;;;;;;-3.01;73.75;146585.69;5063943;28;20033;-67
2023/01/22 02:37:13;;;;;;;17.52;10.55;;;;;;;-3.13;73.36;146556.53;5076223;28;20062;-67
2023/01/22 02:39:39;;;;;;;16.80;10.38;;;;;;;-3.13;73.38;146556.53;5082336;28;20509;-68
2023/01/22 02:42:06;;;;;;;19.88;10.63;;;;;;;-3.22;73.79;146534.97;5062337;28;20029;-67
2023/01/22 02:44:32;;;;;;;19.98;10.43;;;;;;;-3.30;74.49;146515.94;5062047;28;20036;-68
2023/01/22 02:46:57;;;;;;;20.95;11.25;;;;;;;-3.24;73.46;146528.63;5067848;28;20028;-67
2023/01/22 02:49:23;;;;;;;20.50;10.95;;;;;;;-3.35;74.54;146502.00;5059553;28;20316;-67
2023/01/22 02:51:48;;;;;;;18.27;10.38;;;;;;;-3.32;74.52;146509.59;5079511;28;20186;-67
2023/01/22 02:54:14;;;;;;;17.10;10.35;;;;;;;-3.22;73.84;146533.69;5064189;28;20033;-67
2023/01/22 02:56:39;;;;;;;19.42;10.80;;;;;;;-3.42;74.37;146484.25;5081352;28;20043;-67
2023/01/22 02:59:05;;;;;;;16.45;10.02;;;;;;;-3.52;74.73;146460.16;5082116;28;20063;-67
2023/01/22 03:01:31;;;;;;;17.23;10.43;;;;;;;-3.60;74.82;146439.94;5071729;28;20396;-67
2023/01/22 03:04:11;;;;;;;19.02;10.25;;;;;;;-3.43;75.58;146483.00;5055574;28;20032;-67
2023/01/22 03:06:45;;;;;;;18.65;9.85;;;;;;;-3.56;74.53;146450.03;5066113;28;20321;-67
2023/01/22 03:09:13;;;;;;;20.73;11.15;;;;;;;-3.35;74.48;146502.00;5081022;28;20037;-67
2023/01/22 03:11:40;;;;;;;19.45;10.80;;;;;;;-3.17;74.78;146546.38;5080483;28;20024;-69
2023/01/22 03:22:21;;;;;;;21.40;12.80;;;;;;;-3.28;75.54;146518.50;5078605;28;20320;-66
2023/01/22 03:24:51;;;;;;;21.48;11.48;;;;;;;-3.33;74.61;146507.09;5080734;28;20025;-67
2023/01/22 03:27:18;;;;;;;21.52;11.82;;;;;;;-3.28;74.81;146519.75;5088555;28;20040;-67
2023/01/22 03:29:44;;;;;;;18.67;11.32;;;;;;;-3.21;75.40;146537.47;5077781;28;20036;-68
2023/01/22 03:32:11;;;;;;;19.30;11.15;;;;;;;-3.18;75.00;146545.13;5080085;28;20028;-68
2023/01/22 03:34:36;;;;;;;17.90;10.90;;;;;;;-3.51;74.71;146462.72;5081472;28;20138;-68
2023/01/22 03:37:02;;;;;;;21.13;11.57;;;;;;;-3.59;75.26;146443.72;5078202;28;20024;-69
2023/01/22 03:39:30;;;;;;;23.10;12.57;;;;;;;-3.52;76.55;146460.16;5081194;28;20369;-68
2023/01/22 03:41:56;;;;;;;20.00;11.60;;;;;;;-3.32;76.25;146510.88;5051784;28;20033;-68
2023/01/22 03:44:21;;;;;;;21.00;12.20;;;;;;;-3.47;75.91;146472.84;5063084;28;20088;-68
2023/01/22 03:46:47;;;;;;;20.38;11.90;;;;;;;-3.46;76.18;146475.41;5080917;28;20050;-67
2023/01/22 03:49:13;;;;;;;20.33;11.80;;;;;;;-3.38;75.87;146495.66;5068388;28;20060;-67
2023/01/22 03:51:39;;;;;;;21.73;11.15;;;;;;;-3.46;76.19;146475.41;5064118;28;20336;-67
2023/01/22 03:54:05;;;;;;;21.35;11.30;;;;;;;-3.44;75.91;146480.44;5064175;28;20312;-66
2023/01/22 03:56:32;;;;;;;22.40;11.90;;;;;;;-3.53;75.70;146458.91;5074829;28;20029;-66
2023/01/22 03:58:57;;;;;;;21.90;11.63;;;;;;;-3.37;76.02;146496.94;5084460;28;20085;-67
2023/01/22 04:01:25;;;;;;;22.10;12.15;;;;;;;-3.38;75.40;146495.66;5064234;28;20044;-68
2023/01/22 04:03:51;;;;;;;23.85;11.32;;;;;;;-3.37;75.56;146496.94;5085102;28;20040;-66
2023/01/22 04:06:18;;;;;;;18.65;11.95;;;;;;;-3.26;75.49;146524.84;5081995;28;20034;-65
2023/01/22 04:08:45;;;;;;;20.80;11.10;;;;;;;-3.39;75.83;146493.16;5085075;28;20088;-67
2023/01/22 04:11:12;;;;;;;19.85;11.90;;;;;;;-3.20;76.38;146540.03;5077576;28;20261;-67
2023/01/22 04:13:39;;;;;;;22.65;11.38;;;;;;;-3.33;75.88;146508.34;5081212;28;20107;-67
2023/01/22 04:16:06;;;;;;;21.10;12.35;;;;;;;-3.26;76.17;146524.84;5084973;28;20031;-67
2023/01/22 04:18:32;;;;;;;19.00;11.90;;;;;;;-3.23;75.96;146531.19;5077771;28;20194;-66
2023/01/22 04:20:57;;;;;;;25.98;13.50;;;;;;;-3.33;75.89;146507.09;5067291;28;20024;-67
2023/01/22 04:23:24;;;;;;;21.90;12.63;;;;;;;-3.32;75.95;146509.59;5085072;28;20305;-67
2023/01/22 04:25:51;;;;;;;21.65;12.27;;;;;;;-3.14;76.23;146553.97;5084156;28;20035;-68
2023/01/22 04:28:16;;;;;;;21.00;12.00;;;;;;;-3.14;75.87;146553.97;5101301;28;20024;-65
2023/01/22 04:30:43;;;;;;;24.77;12.55;;;;;;;-3.22;75.62;146533.69;5095798;28;20025;-66
2023/01/22 04:33:10;;;;;;;22.98;12.40;;;;;;;-3.25;75.86;146526.09;5084689;28;20059;-66
2023/01/22 04:35:37;;;;;;;19.90;11.65;;;;;;;-3.21;75.42;146537.47;5081725;28;20040;-65
2023/01/22 04:38:04;;;;;;;20.05;11.90;;;;;;;-3.28;75.77;146518.50;5084112;28;20048;-66
2023/01/22 04:40:30;;;;;;;21.08;11.68;;;;;;;-3.21;75.55;146537.47;5084120;28;20032;-67
2023/01/22 04:43:01;;;;;;;24.70;12.98;;;;;;;-3.38;75.83;146495.66;5084479;28;20025;-68
2023/01/22 04:45:26;;;;;;;24.23;12.45;;;;;;;-3.27;76.37;146522.28;5084265;28;20512;-67
2023/01/22 04:47:52;;;;;;;22.40;12.38;;;;;;;-3.39;76.50;146493.16;5083024;28;20056;-67
2023/01/22 04:50:21;;;;;;;21.55;12.25;;;;;;;-3.38;76.49;146494.41;5046916;28;20024;-68
2023/01/22 04:52:46;;;;;;;26.50;14.15;;;;;;;-3.15;76.53;146551.44;5081664;28;20032;-68
2023/01/22 04:55:12;;;;;;;24.25;12.80;;;;;;;-3.24;77.07;146529.88;5084690;28;20271;-68
2023/01/22 04:57:38;;;;;;;24.58;12.82;;;;;;;-3.19;76.35;146542.59;5073557;28;20036;-67
2023/01/22 05:00:05;;;;;;;22.77;12.40;;;;;;;-3.14;76.14;146553.97;5085042;28;20083;-67
2023/01/22 05:02:31;;;;;;;26.73;13.30;;;;;;;-3.04;76.06;146578.06;5083942;28;20031;-66
2023/01/22 05:04:57;;;;;;;22.98;12.52;;;;;;;-2.95;76.24;146600.88;5084373;28;20364;-68
2023/01/22 05:07:22;;;;;;;23.13;12.68;;;;;;;-3.16;76.05;146548.94;5070388;28;20221;-67
2023/01/22 05:09:48;;;;;;;19.58;11.25;;;;;;;-3.16;76.60;146550.19;5068972;28;20036;-68
2023/01/22 05:12:13;;;;;;;23.15;13.35;;;;;;;-2.99;76.74;146592.03;5068897;28;20024;-68
2023/01/22 05:14:39;;;;;;;24.23;13.05;;;;;;;-2.88;76.13;146617.38;5084557;28;20255;-68
2023/01/22 05:17:05;;;;;;;25.17;13.40;;;;;;;-2.95;76.16;146600.88;5069028;28;20024;-68
2023/01/22 05:19:30;;;;;;;29.23;13.82;;;;;;;-2.79;75.84;146641.47;5078239;28;20297;-72
2023/01/22 05:21:56;;;;;;;22.75;12.02;;;;;;;-2.87;75.81;146621.19;5080483;28;20044;-67
2023/01/22 05:24:21;;;;;;;22.60;13.10;;;;;;;-2.94;75.80;146603.41;5084486;28;20032;-67
2023/01/22 05:26:47;;;;;;;24.08;12.82;;;;;;;-2.78;75.48;146642.72;5087872;28;20027;-67
2023/01/22 05:29:12;;;;;;;24.05;13.68;;;;;;;-2.79;75.75;146640.22;5075396;28;20064;-67
2023/01/22 05:31:38;;;;;;;23.77;13.35;;;;;;;-2.82;76.50;146633.88;5079395;28;20092;-67
2023/01/22 05:34:04;;;;;;;20.88;12.05;;;;;;;-2.96;75.95;146599.63;5075927;28;20016;-67
2023/01/22 05:36:30;;;;;;;22.55;12.82;;;;;;;-2.95;76.69;146602.19;5073404;28;20032;-67
2023/01/22 05:38:56;;;;;;;24.88;12.98;;;;;;;-2.97;76.19;146597.06;5069811;28;20074;-66
2023/01/22 05:41:21;;;;;;;25.00;14.02;;;;;;;-2.94;76.98;146603.41;5083563;28;20032;-67
2023/01/22 05:43:47;;;;;;;25.33;14.32;;;;;;;-2.83;76.40;146630.06;5083487;28;20090;-68
2023/01/22 05:46:12;;;;;;;23.80;13.68;;;;;;;-2.83;76.33;146630.06;5083196;28;20236;-68
2023/01/22 05:48:38;;;;;;;28.08;13.63;;;;;;;-3.07;76.62;146571.72;5076724;28;20060;-68
2023/01/22 05:51:06;;;;;;;26.23;13.50;;;;;;;-2.88;76.55;146617.38;5066135;28;20037;-69
2023/01/22 05:53:33;;;;;;;24.65;13.48;;;;;;;-2.91;76.24;146611.03;5082949;28;20034;-65
2023/01/22 05:56:02;;;;;;;23.90;13.77;;;;;;;-3.10;77.08;146562.88;5083315;28;20043;-68
2023/01/22 05:58:29;;;;;;;21.90;12.80;;;;;;;-3.07;77.31;146571.72;5083685;28;20256;-67
2023/01/22 06:00:55;;;;;;;23.80;13.80;;;;;;;-2.77;76.92;146645.28;5062368;28;20041;-68
2023/01/22 06:03:21;;;;;;;24.00;14.00;;;;;;;-2.84;76.79;146628.78;5083306;28;20040;-67
2023/01/22 06:05:46;;;;;;;23.13;13.20;;;;;;;-2.68;76.64;146668.13;5079271;28;20100;-68
2023/01/22 06:08:12;;;;;;;22.48;13.50;;;;;;;-2.80;76.34;146638.94;5083214;28;20313;-67
2023/01/22 06:10:38;;;;;;;25.15;13.40;;;;;;;-2.87;76.47;146619.91;5077910;28;20032;-69
2023/01/22 06:13:03;;;;;;;24.83;13.52;;;;;;;-2.63;76.29;146680.78;5055056;28;20202;-69
2023/01/22 06:15:29;;;;;;;22.17;13.75;;;;;;;-2.55;76.82;146698.53;5048893;28;20245;-68
2023/01/22 06:18:00;;;;;;;25.17;13.90;;;;;;;-2.71;75.85;146660.47;5063931;28;20039;-68
2023/01/22 06:20:26;;;;;;;25.98;13.65;;;;;;;-2.52;76.08;146707.44;5063722;28;20028;-67
2023/01/22 06:22:51;;;;;;;23.40;13.43;;;;;;;-2.55;75.63;146698.53;5063233;28;20032;-67
2023/01/22 06:25:17;;;;;;;23.13;13.45;;;;;;;-2.76;76.52;146647.81;5074277;28;20024;-66
2023/01/22 06:27:42;;;;;;;28.08;14.75;;;;;;;-2.61;76.26;146685.88;5086342;28;20020;-67
2023/01/22 06:30:09;;;;;;;24.30;13.60;;;;;;;-2.48;75.90;146717.59;5092938;28;20043;-67
2023/01/22 06:32:34;;;;;;;27.58;14.02;;;;;;;-2.41;76.33;146734.06;5081727;28;20349;-68
2023/01/22 06:35:00;;;;;;;21.67;14.75;;;;;;;-2.29;76.20;146763.28;5080101;28;20028;-67
2023/01/22 06:37:25;;;;;;;25.85;14.52;;;;;;;-2.34;76.33;146751.81;5079844;28;20032;-67
2023/01/22 06:39:51;;;;;;;31.15;14.93;;;;;;;-2.53;75.58;146704.91;5082648;28;20055;-68
2023/01/22 06:42:16;;;;;;;25.33;14.43;;;;;;;-2.56;75.35;146696.03;5070190;28;20028;-68
2023/01/22 06:44:42;;;;;;;27.70;15.07;;;;;;;-2.62;76.43;146683.34;5082828;28;20052;-67
2023/01/22 06:47:07;;;;;;;26.25;14.90;;;;;;;-2.45;76.35;146723.94;5082153;28;20059;-66
2023/01/22 06:49:33;;;;;;;27.85;15.32;;;;;;;-2.24;75.97;146775.94;5068403;28;20028;-67
2023/01/22 06:51:58;;;;;;;26.42;14.05;;;;;;;-2.43;75.90;146730.25;5072228;28;20036;-67
2023/01/22 06:54:24;;;;;;;25.85;14.90;;;;;;;-2.49;76.36;146715.03;5082756;28;20051;-66
2023/01/22 06:56:49;;;;;;;27.13;14.85;;;;;;;-2.38;76.39;146741.72;5051428;28;20116;-66
2023/01/22 06:59:15;;;;;;;24.40;14.68;;;;;;;-2.27;76.53;146768.31;5069952;28;20024;-67
2023/01/22 07:01:41;;;;;;;28.33;14.48;;;;;;;-2.20;76.21;146784.81;5078196;28;20024;-67
2023/01/22 07:04:06;;;;;;;26.33;14.80;;;;;;;-2.22;76.51;146779.72;5054078;28;20036;-66
2023/01/22 07:06:32;;;;;;;27.00;14.25;;;;;;;-2.30;76.28;146760.72;5068201;28;20043;-66
2023/01/22 07:08:57;;;;;;;24.98;15.50;;;;;;;-2.52;76.86;146706.13;5081212;28;20246;-67
2023/01/22 07:11:23;;;;;;;24.55;14.65;;;;;;;-2.37;76.15;146744.22;5044653;28;20040;-67
2023/01/22 07:13:48;;;;;;;28.17;15.55;;;;;;;-2.32;76.49;146756.91;5078894;28;20036;-67
2023/01/22 07:16:14;;;;;;;27.77;15.75;;;;;;;-2.19;76.60;146787.38;5076552;28;20032;-67
2023/01/22 07:18:39;;;;;;;27.33;14.68;;;;;;;-2.27;76.35;146768.31;5055626;28;20074;-67
2023/01/22 07:21:05;;;;;;;28.45;15.63;;;;;;;-2.21;76.17;146782.28;5073396;28;20220;-67
2023/01/22 07:23:31;;;;;;;28.17;15.60;;;;;;;-2.19;76.13;146788.63;5072758;28;20024;-67
2023/01/22 07:25:57;;;;;;;29.35;15.52;;;;;;;-2.16;76.69;146796.25;5070771;28;20024;-66
2023/01/22 07:28:23;;;;;;;24.60;15.45;;;;;;;-2.00;76.64;146835.56;5073508;28;20029;-66
2023/01/22 07:30:48;;;;;;;27.05;16.25;;;;;;;-1.96;76.74;146845.72;5059172;28;20013;-67
2023/01/22 07:33:14;;;;;;;27.08;15.50;;;;;;;-1.97;76.70;146843.19;5055525;28;20036;-66
2023/01/22 07:35:41;;;;;;;29.25;15.80;;;;;;;-2.13;77.22;146802.59;5073020;28;20037;-70
2023/01/22 07:38:07;;;;;;;25.02;14.90;;;;;;;-2.25;77.29;146773.44;5075129;28;20028;-68
2023/01/22 07:40:33;;;;;;;24.75;15.80;;;;;;;-2.09;77.54;146812.75;5075352;28;20362;-67
2023/01/22 07:42:58;;;;;;;32.10;16.70;;;;;;;-2.20;77.29;146784.81;5076284;28;20029;-67
2023/01/22 07:45:25;;;;;;;28.58;15.93;;;;;;;-2.13;77.45;146802.59;5075457;28;20060;-69
2023/01/22 07:47:55;;;;;;;31.92;16.48;;;;;;;-2.04;77.18;146825.41;5075015;28;20032;-68
2023/01/22 07:50:28;;;;;;;28.83;15.80;;;;;;;-2.00;76.89;146835.56;5069039;28;20225;-68
2023/01/22 07:52:55;;;;;;;30.15;16.70;;;;;;;-1.90;77.13;146859.69;5074059;28;20336;-68
2023/01/22 07:55:21;;;;;;;29.95;17.00;;;;;;;-1.79;77.36;146886.38;5069022;28;20025;-68
2023/01/22 07:57:46;;;;;;;27.98;16.02;;;;;;;-1.90;77.54;146859.69;5071276;28;20035;-67
2023/01/22 08:00:14;;;;;;;31.13;15.95;;;;;;;-1.69;77.41;146911.75;5046055;28;20244;-68
2023/01/22 08:02:41;;;;;;;30.63;16.58;;;;;;;-1.71;76.88;146905.38;5071417;28;20041;-67
2023/01/22 08:05:09;;;;;;;29.70;16.23;;;;;;;-2.02;77.95;146829.22;5053550;28;20029;-68
2023/01/22 08:07:35;;;;;;;30.38;16.52;;;;;;;-2.08;77.86;146816.56;5070858;28;20032;-68
2023/01/22 08:10:00;;;;;;;30.40;17.67;;;;;;;-1.88;77.96;146864.78;5073349;28;20012;-67
2023/01/22 08:12:26;;;;;;;31.90;17.70;;;;;;;-1.92;76.99;146854.63;5070210;28;20197;-67
2023/01/22 08:14:52;;;;;;;29.85;17.33;;;;;;;-1.83;77.13;146877.47;5073872;28;20025;-66
2023/01/22 08:17:17;;;;;;;32.42;17.08;;;;;;;-1.84;77.73;146873.66;5055478;28;20287;-67
2023/01/22 08:19:43;;;;;;;28.52;16.67;;;;;;;-1.86;77.66;146869.84;5076464;28;20194;-66
2023/01/22 08:22:08;;;;;;;30.75;16.65;;;;;;;-1.62;77.00;146928.25;5080568;28;20419;-66
2023/01/22 08:24:34;;;;;;;28.10;16.52;;;;;;;-1.70;77.31;146909.19;5061582;28;20021;-66
2023/01/22 08:27:00;;;;;;;34.20;17.77;;;;;;;-1.79;77.50;146887.63;5077985;28;20032;-67
2023/01/22 08:29:25;;;;;;;28.50;16.80;;;;;;;-1.68;78.45;146914.28;5063574;28;20213;-67
2023/01/22 08:31:52;;;;;;;31.38;17.45;;;;;;;-1.72;77.72;146904.13;5067734;28;20056;-67
2023/01/22 08:34:18;;;;;;;33.33;18.85;;;;;;;-1.58;78.69;146939.66;5072228;28;20043;-67
2023/01/22 08:36:44;;;;;;;28.92;16.98;;;;;;;-1.89;79.15;146862.25;5071778;28;20048;-68
2023/01/22 08:39:10;;;;;;;31.42;17.73;;;;;;;-1.80;78.68;146883.81;5053152;28;20024;-66
2023/01/22 08:41:35;;;;;;;29.85;18.65;;;;;;;-1.70;79.49;146909.19;5074653;28;20048;-68
2023/01/22 08:44:01;;;;;;;31.42;18.33;;;;;;;-1.74;79.72;146899.03;5078937;28;20039;-67
2023/01/22 08:46:26;;;;;;;34.28;19.13;;;;;;;-1.71;79.95;146905.38;5083067;28;20068;-67
2023/01/22 08:48:52;;;;;;;32.20;17.88;;;;;;;-1.61;79.56;146930.75;5072287;28;20095;-66
2023/01/22 08:51:18;;;;;;;34.85;18.95;;;;;;;-1.42;79.84;146977.78;5075516;28;20049;-67
2023/01/22 08:53:43;;;;;;;29.65;17.30;;;;;;;-1.35;79.46;146995.53;5074656;28;20208;-66
2023/01/22 08:56:09;;;;;;;31.27;17.90;;;;;;;-1.36;78.66;146993.00;5079583;28;20071;-68
2023/01/22 08:58:35;;;;;;;28.55;18.33;;;;;;;-1.48;79.50;146962.50;5083394;28;20292;-68
2023/01/22 09:01:00;;;;;;;30.30;17.42;;;;;;;-1.61;79.31;146932.06;5058152;28;20052;-67
2023/01/22 09:03:26;;;;;;;32.72;19.58;;;;;;;-1.64;79.96;146924.47;5082712;28;20036;-66
2023/01/22 09:05:51;;;;;;;32.10;17.63;;;;;;;-1.34;80.32;146998.09;5066308;28;20253;-66
2023/01/22 09:08:17;;;;;;;36.63;18.80;;;;;;;-1.49;80.16;146961.25;5076274;28;20293;-68
2023/01/22 09:10:43;;;;;;;34.85;18.20;;;;;;;-1.46;80.41;146967.59;5075494;28;20019;-68
2023/01/22 09:13:09;;;;;;;30.90;18.08;;;;;;;-1.27;80.90;147015.88;5073529;28;20033;-67
2023/01/22 09:15:35;;;;;;;33.92;18.67;;;;;;;-1.43;79.18;146975.22;5078214;28;20071;-66
2023/01/22 09:18:01;;;;;;;32.50;19.05;;;;;;;-1.34;80.01;146996.81;5082592;28;20033;-67
2023/01/22 09:20:27;;;;;;;33.70;18.77;;;;;;;-1.63;79.95;146926.97;5073920;28;20064;-68
2023/01/22 09:22:53;;;;;;;35.10;19.40;;;;;;;-1.57;79.80;146942.22;5074097;28;20033;-66
2023/01/22 09:25:19;;;;;;;31.52;19.35;;;;;;;-1.28;80.00;147013.31;5075213;28;20097;-68
2023/01/22 09:27:45;;;;;;;35.03;19.05;;;;;;;-1.17;80.19;147039.97;5083440;28;20028;-66
2023/01/22 09:30:13;;;;;;;32.92;19.17;;;;;;;-1.48;80.16;146962.50;5065216;28;20194;-69
2023/01/22 09:32:39;;;;;;;34.75;19.73;;;;;;;-1.73;81.20;146902.84;5072276;28;20029;-70
2023/01/22 09:35:07;;;;;;;41.33;19.65;;;;;;;-1.56;81.16;146943.47;5083499;28;20088;-67
2023/01/22 09:37:32;;;;;;;32.40;19.50;;;;;;;-1.46;79.94;146967.59;5074695;28;20035;-69
2023/01/22 09:39:58;;;;;;;37.10;19.83;;;;;;;-1.49;79.80;146961.25;5076608;28;20017;-67
2023/01/22 09:42:36;;;;;;;33.88;20.05;;;;;;;-1.54;79.92;146948.53;5078964;28;20028;-68
2023/01/22 09:45:09;;;;;;;34.38;19.25;;;;;;;-1.40;80.72;146984.13;5075839;28;20044;-68
2023/01/22 09:47:37;;;;;;;33.63;19.42;;;;;;;-1.37;79.93;146990.44;5068731;28;20135;-68
2023/01/22 09:50:16;;;;;;;33.70;20.25;;;;;;;-1.32;79.50;147003.16;5083620;28;20496;-67
2023/01/22 09:52:42;;;;;;;33.78;20.02;;;;;;;-1.49;79.46;146960.00;5081973;28;20029;-68
2023/01/22 09:55:17;;;;;;;37.63;20.10;;;;;;;-1.68;80.28;146914.28;5082495;28;20490;-68
2023/01/22 09:57:49;;;;;;;32.10;19.40;;;;;;;-1.58;80.91;146938.44;5069378;28;20035;-67
2023/01/22 10:00:22;;;;;;;39.08;20.63;;;;;;;-1.52;81.34;146952.38;5083580;28;20036;-68
2023/01/22 10:03:00;;;;;;;35.22;20.17;;;;;;;-1.33;80.13;146999.34;5063531;28;20035;-68
2023/01/22 10:05:34;;;;;;;32.00;19.27;;;;;;;-1.44;80.53;146972.66;5081740;28;20036;-68
2023/01/22 10:08:07;;;;;;;32.60;18.25;;;;;;;-1.25;80.30;147020.94;5080127;28;20035;-68
2023/01/22 10:10:34;;;;;;;32.08;18.98;;;;;;;-1.11;79.88;147053.94;5080274;28;20096;-68
2023/01/22 10:13:05;;;;;;;35.53;19.50;;;;;;;-1.31;78.46;147005.72;5075545;28;20039;-68
2023/01/22 10:15:31;;;;;;;32.72;19.55;;;;;;;-1.56;79.64;146943.47;5066636;28;20029;-68
2023/01/22 10:17:57;;;;;;;37.33;20.35;;;;;;;-1.49;79.75;146960.00;5083286;28;20025;-66
2023/01/22 10:20:23;;;;;;;36.03;19.95;;;;;;;-1.57;79.97;146940.94;5064165;28;20032;-67
2023/01/22 10:22:52;;;;;;;34.55;19.00;;;;;;;-1.72;80.42;146904.13;5077927;28;20200;-68
2023/01/22 10:25:18;;;;;;;33.13;19.65;;;;;;;-1.46;80.44;146967.59;5082680;28;20032;-67
2023/01/22 10:27:45;;;;;;;40.05;20.48;;;;;;;-1.78;80.54;146888.88;5082534;28;20077;-67
2023/01/22 10:30:14;;;;;;;32.53;19.50;;;;;;;-1.43;79.23;146975.22;5082979;28;20024;-68
2023/01/22 10:32:40;;;;;;;34.10;19.58;;;;;;;-1.29;78.93;147009.53;5063095;28;20260;-66
2023/01/22 10:35:19;;;;;;;34.40;20.23;;;;;;;-1.39;78.63;146985.38;5079494;28;20039;-66
2023/01/22 10:37:51;;;;;;;31.88;18.25;;;;;;;-1.41;78.97;146980.28;5058931;28;20042;-67
2023/01/22 10:40:30;;;;;;;34.97;19.70;;;;;;;-1.21;79.13;147029.84;5082164;28;20020;-66
2023/01/22 10:43:13;;;;;;;32.63;18.80;;;;;;;-1.23;79.06;147024.75;5075679;28;20201;-67
2023/01/22 10:45:51;;;;;;;33.75;19.17;;;;;;;-1.33;78.67;146999.34;5045704;28;20253;-67
2023/01/22 10:48:17;;;;;;;30.80;19.23;;;;;;;-1.00;79.29;147080.63;5064250;28;20092;-67
2023/01/22 10:50:44;;;;;;;33.28;18.70;;;;;;;-0.98;78.97;147085.69;5082130;28;20035;-66
2023/01/22 10:53:18;;;;;;;30.52;18.25;;;;;;;-1.00;77.80;147080.63;5065181;28;20068;-68
2023/01/22 10:55:51;;;;;;;34.25;19.60;;;;;;;-1.02;77.58;147076.81;5071792;28;20075;-67
2023/01/22 10:58:20;;;;;;;30.55;17.98;;;;;;;-1.05;78.12;147069.22;5054233;28;20020;-68
2023/01/22 11:00:59;;;;;;;33.45;19.98;;;;;;;-0.97;77.76;147088.25;5077918;28;20045;-66
2023/01/22 11:03:33;;;;;;;31.45;18.92;;;;;;;-1.11;78.31;147055.22;5064597;28;20055;-67
2023/01/22 11:06:17;;;;;;;29.77;18.60;;;;;;;-0.91;77.90;147103.53;5064501;28;20032;-66
2023/01/22 11:08:52;;;;;;;30.45;18.35;;;;;;;-0.84;77.86;147120.00;5066774;28;20036;-69
2023/01/22 11:11:23;;;;;;;36.20;20.65;;;;;;;-1.11;78.40;147053.94;5081475;28;20062;-67
2023/01/22 11:14:15;;;;;;;35.28;20.77;;;;;;;-1.13;79.12;147048.88;5081851;28;20028;-67
2023/01/22 11:16:42;;;;;;;37.03;19.48;;;;;;;-1.09;78.74;147059.03;5046715;28;20025;-68
2023/01/22 11:19:14;;;;;;;33.60;19.83;;;;;;;-0.87;78.59;147114.94;5070755;28;20130;-66